createdAt,value
2019-01-30T00:02:53.829Z,2.60
2019-01-30T00:07:07.629Z,8.00
2019-01-30T00:11:21.137Z,5.13
2019-01-30T00:15:33.724Z,1.53
2019-01-30T00:19:46.080Z,2.80
2019-01-30T00:23:58.377Z,3.43
2019-01-30T00:28:11.272Z,2.43
2019-01-30T00:32:23.907Z,1.13
2019-01-30T00:36:37.507Z,4.70
2019-01-30T00:40:50.636Z,1.23
2019-01-30T00:45:02.970Z,3.13
2019-01-30T00:49:15.813Z,1.53
2019-01-30T00:53:28.269Z,5.43
2019-01-30T00:57:40.690Z,4.20
2019-01-30T01:01:53.653Z,5.13
2019-01-30T01:06:06.326Z,4.40
2019-01-30T01:10:19.640Z,7.23
2019-01-30T01:14:31.980Z,3.30
2019-01-30T01:18:44.405Z,4.83
2019-01-30T01:22:57.090Z,2.43
2019-01-30T01:27:09.544Z,3.80
2019-01-30T01:31:22.069Z,3.60
2019-01-30T01:35:34.908Z,3.67
2019-01-30T01:39:47.400Z,3.43
2019-01-30T01:43:59.800Z,1.93
2019-01-30T01:48:12.596Z,5.17
2019-01-30T01:52:25.055Z,3.03
2019-01-30T01:56:37.400Z,5.40
2019-01-30T02:00:50.260Z,2.00
2019-01-30T02:05:02.980Z,3.67
2019-01-30T02:09:16.015Z,3.30
2019-01-30T02:13:28.366Z,3.23
2019-01-30T02:17:40.672Z,0.90
2019-01-30T02:21:53.047Z,4.40
2019-01-30T02:26:05.957Z,4.13
2019-01-30T02:30:20.975Z,3.70
2019-01-30T02:34:33.503Z,3.07
2019-01-30T02:38:45.790Z,4.13
2019-01-30T02:42:58.849Z,4.63
2019-01-30T02:47:11.175Z,1.50
2019-01-30T02:51:24.721Z,4.70
2019-01-30T02:55:37.278Z,6.73
2019-01-30T02:59:50.160Z,8.70
2019-01-30T03:04:02.776Z,2.90
2019-01-30T03:08:15.292Z,2.10
2019-01-30T03:12:28.092Z,3.63
2019-01-30T03:16:40.597Z,2.40
2019-01-30T03:20:53.415Z,3.57
2019-01-30T03:25:06.549Z,5.20
2019-01-30T03:29:19.171Z,2.07
2019-01-30T03:33:31.701Z,6.50
2019-01-30T03:37:45.400Z,6.03
2019-01-30T03:41:58.370Z,4.60
2019-01-30T03:46:10.830Z,7.93
2019-01-30T03:50:23.127Z,3.83
2019-01-30T03:54:35.921Z,4.00
2019-01-30T03:58:48.379Z,4.20
2019-01-30T04:03:01.364Z,5.50
2019-01-30T04:07:13.947Z,5.73
2019-01-30T04:11:26.420Z,4.00
2019-01-30T04:15:38.669Z,4.53
2019-01-30T04:19:52.118Z,6.30
2019-01-30T04:24:05.168Z,4.90
2019-01-30T04:28:17.449Z,5.43
2019-01-30T04:32:29.749Z,5.20
2019-01-30T04:36:42.635Z,5.70
2019-01-30T04:40:55.091Z,3.90
2019-01-30T04:45:09.032Z,4.80
2019-01-30T04:49:21.831Z,7.80
2019-01-30T04:53:34.388Z,6.30
2019-01-30T04:57:46.797Z,4.70
2019-01-30T05:01:59.592Z,3.03
2019-01-30T05:06:12.051Z,5.10
2019-01-30T05:10:24.452Z,4.67
2019-01-30T05:14:37.214Z,3.20
2019-01-30T05:18:49.805Z,5.63
2019-01-30T05:23:02.212Z,4.43
2019-01-30T05:27:15.004Z,5.63
2019-01-30T05:31:27.655Z,5.43
2019-01-30T05:35:40.540Z,7.37
2019-01-30T05:39:53.008Z,7.53
2019-01-30T05:44:05.633Z,10.83
2019-01-30T05:48:18.476Z,9.80
2019-01-30T05:52:30.869Z,1.63
2019-01-30T05:56:43.277Z,3.87
2019-01-30T06:00:56.617Z,6.67
2019-01-30T06:05:09.237Z,4.93
2019-01-30T06:09:21.872Z,4.50
2019-01-30T06:13:34.275Z,2.83
2019-01-30T06:17:46.655Z,3.40
2019-01-30T06:21:59.369Z,3.33
2019-01-30T06:26:11.840Z,4.80
2019-01-30T06:30:24.269Z,15.20
2019-01-30T06:34:36.823Z,6.93
2019-01-30T06:38:49.451Z,9.00
2019-01-30T06:43:02.829Z,6.00
2019-01-30T06:47:16.428Z,6.10
2019-01-30T06:51:28.953Z,8.83
2019-01-30T06:55:41.297Z,7.67
2019-01-30T06:59:54.635Z,9.00
2019-01-30T07:04:06.949Z,6.97
2019-01-30T07:08:19.746Z,11.77
2019-01-30T07:12:32.207Z,42.43
2019-01-30T07:16:44.596Z,7.73
2019-01-30T07:20:57.535Z,6.60
2019-01-30T07:25:10.820Z,3.17
2019-01-30T07:29:23.492Z,3.70
2019-01-30T07:33:35.967Z,6.40
2019-01-30T07:37:48.792Z,9.80
2019-01-30T07:42:01.253Z,5.90
2019-01-30T07:46:13.661Z,5.23
2019-01-30T07:50:27.010Z,3.97
2019-01-30T07:54:39.853Z,5.07
2019-01-30T07:58:52.453Z,4.17
2019-01-30T08:03:05.060Z,4.33
2019-01-30T08:07:17.956Z,4.93
2019-01-30T08:11:32.839Z,3.60
2019-01-30T08:15:43.943Z,3.57
2019-01-30T08:19:56.920Z,2.40
2019-01-30T08:24:09.493Z,2.67
2019-01-30T08:28:21.897Z,3.97
2019-01-30T08:32:34.931Z,3.03
2019-01-30T08:36:47.431Z,5.73
2019-01-30T08:41:00.313Z,3.37
2019-01-30T08:45:16.433Z,5.37
2019-01-30T08:49:28.981Z,6.97
2019-01-30T08:53:41.448Z,4.33
2019-01-30T08:57:54.068Z,7.60
2019-01-30T09:02:07.089Z,4.47
2019-01-30T09:06:22.426Z,5.67
2019-01-30T09:10:37.231Z,4.70
2019-01-30T09:14:52.006Z,5.40
2019-01-30T09:19:05.456Z,8.47
2019-01-30T09:23:19.440Z,12.40
2019-01-30T09:27:34.636Z,23.37
2019-01-30T09:31:51.003Z,9.90
2019-01-30T09:36:05.609Z,4.27
2019-01-30T09:40:20.227Z,3.43
2019-01-30T09:44:35.242Z,6.87
2019-01-30T09:48:50.692Z,7.10
2019-01-30T09:53:05.168Z,6.57
2019-01-30T09:57:23.102Z,3.53
2019-01-30T10:01:37.724Z,3.63
2019-01-30T10:05:50.389Z,2.67
2019-01-30T10:10:02.828Z,3.83
2019-01-30T10:14:16.029Z,3.77
2019-01-30T10:18:28.816Z,1.33
2019-01-30T10:22:41.920Z,5.57
2019-01-30T10:26:55.709Z,4.20
2019-01-30T10:31:09.177Z,3.13
2019-01-30T10:35:22.450Z,5.93
2019-01-30T10:39:35.293Z,3.20
2019-01-30T10:43:48.381Z,5.67
2019-01-30T10:48:01.179Z,4.40
2019-01-30T10:52:15.377Z,5.37
2019-01-30T10:56:28.175Z,3.63
2019-01-30T11:00:44.709Z,4.33
2019-01-30T11:04:57.976Z,4.40
2019-01-30T11:09:12.590Z,5.23
2019-01-30T11:13:25.555Z,6.27
2019-01-30T11:17:39.705Z,4.10
2019-01-30T11:21:52.554Z,3.67
2019-01-30T11:26:05.773Z,3.17
2019-01-30T11:30:18.834Z,3.50
2019-01-30T11:34:32.061Z,3.80
2019-01-30T11:38:45.348Z,5.97
2019-01-30T11:42:59.232Z,2.93
2019-01-30T11:47:14.014Z,2.93
2019-01-30T11:51:28.089Z,4.83
2019-01-30T11:55:41.923Z,2.83
2019-01-30T11:59:54.911Z,3.03
2019-01-30T12:04:17.498Z,2.17
2019-01-30T12:08:23.133Z,26.07
2019-01-30T12:12:37.932Z,9.57
2019-01-30T12:16:51.042Z,3.83
2019-01-30T12:21:04.184Z,3.30
2019-01-30T12:25:18.344Z,3.10
2019-01-30T12:29:32.191Z,4.00
2019-01-30T12:33:46.553Z,3.97
2019-01-30T12:37:59.652Z,3.63
2019-01-30T12:42:12.988Z,3.83
2019-01-30T12:46:26.930Z,5.53
2019-01-30T12:50:40.025Z,8.30
2019-01-30T12:54:53.140Z,4.70
2019-01-30T12:59:07.399Z,3.53
2019-01-30T13:03:20.390Z,4.93
2019-01-30T13:07:33.293Z,4.73
2019-01-30T13:11:46.321Z,5.93
2019-01-30T13:15:59.266Z,18.50
2019-01-30T13:20:15.002Z,20.00
2019-01-30T13:24:28.161Z,54.07
2019-01-30T13:28:41.248Z,16.40
2019-01-30T13:32:54.298Z,3.70
2019-01-30T13:37:08.170Z,4.27
2019-01-30T13:41:23.468Z,3.23
2019-01-30T13:45:36.642Z,4.13
2019-01-30T13:49:49.771Z,4.13
2019-01-30T13:54:02.749Z,5.10
2019-01-30T13:58:15.935Z,3.87
2019-01-30T14:02:28.565Z,4.67
2019-01-30T14:06:41.683Z,9.57
2019-01-30T14:10:54.918Z,16.60
2019-01-30T14:15:08.842Z,8.47
2019-01-30T14:19:22.053Z,4.87
2019-01-30T14:23:34.914Z,8.73
2019-01-30T14:27:48.123Z,8.07
2019-01-30T14:32:01.999Z,8.30
2019-01-30T14:36:15.206Z,7.63
2019-01-30T14:40:28.593Z,7.33
2019-01-30T14:44:41.523Z,12.30
2019-01-30T14:48:54.663Z,8.97
2019-01-30T14:53:07.836Z,13.00
2019-01-30T14:57:21.129Z,12.50
2019-01-30T15:01:35.045Z,17.17
2019-01-30T15:05:47.878Z,13.50
2019-01-30T15:10:00.977Z,10.40
2019-01-30T15:14:14.385Z,9.10
2019-01-30T15:18:27.271Z,10.63
2019-01-30T15:22:40.193Z,11.43
2019-01-30T15:26:53.380Z,6.30
2019-01-30T15:31:06.313Z,10.07
2019-01-30T15:35:19.354Z,11.73
2019-01-30T15:39:32.535Z,9.37
2019-01-30T15:43:45.579Z,12.07
2019-01-30T15:47:58.717Z,12.17
2019-01-30T15:52:11.740Z,7.43
2019-01-30T15:56:25.041Z,10.00
2019-01-30T16:00:49.432Z,6.13
2019-01-30T16:05:02.126Z,7.13
2019-01-30T16:09:16.102Z,7.27
2019-01-30T16:13:30.095Z,4.20
2019-01-30T16:17:44.228Z,6.60
2019-01-30T16:21:57.398Z,12.00
2019-01-30T16:26:10.358Z,10.83
2019-01-30T16:30:24.173Z,8.33
2019-01-30T16:34:37.231Z,9.73
2019-01-30T16:38:50.541Z,8.03
2019-01-30T16:43:03.622Z,7.70
2019-01-30T16:47:16.720Z,7.77
2019-01-30T16:51:29.864Z,9.53
2019-01-30T16:55:42.702Z,7.07
2019-01-30T16:59:55.671Z,9.43
2019-01-30T17:04:08.918Z,20.37
2019-01-30T17:08:21.621Z,21.20
2019-01-30T17:12:34.881Z,17.80
2019-01-30T17:16:50.942Z,12.07
2019-01-30T17:21:05.178Z,9.67
2019-01-30T17:25:19.274Z,10.37
2019-01-30T17:29:32.693Z,8.63
2019-01-30T17:33:47.697Z,9.33
2019-01-30T17:38:02.026Z,7.00
2019-01-30T17:42:16.461Z,52.97
2019-01-30T17:46:32.527Z,61.67
2019-01-30T17:50:49.645Z,11.43
2019-01-30T17:55:06.505Z,6.13
2019-01-30T17:59:23.902Z,4.60
2019-01-30T18:03:41.905Z,30.17
2019-01-30T18:07:58.809Z,29.03
2019-01-30T18:12:18.272Z,19.40
2019-01-30T18:16:35.666Z,12.80
2019-01-30T18:20:54.747Z,11.47
2019-01-30T18:25:12.376Z,6.47
2019-01-30T18:29:29.065Z,6.40
2019-01-30T18:33:46.611Z,7.27
2019-01-30T18:38:05.719Z,8.53
2019-01-30T18:42:23.604Z,7.97
2019-01-30T18:46:45.263Z,8.60
2019-01-30T18:51:03.459Z,5.63
2019-01-30T18:55:20.299Z,10.23
2019-01-30T18:59:36.552Z,4.30
2019-01-30T19:03:53.302Z,4.73
2019-01-30T19:08:09.960Z,8.93
2019-01-30T19:12:24.393Z,7.00
2019-01-30T19:16:40.314Z,12.90
2019-01-30T19:20:56.874Z,14.07
2019-01-30T19:25:13.016Z,9.33
2019-01-30T19:29:30.146Z,6.33
2019-01-30T19:33:50.748Z,8.27
2019-01-30T19:38:08.192Z,9.40
2019-01-30T19:42:26.456Z,9.73
2019-01-30T19:46:44.778Z,8.00
2019-01-30T19:51:16.069Z,12.10
2019-01-30T19:55:34.517Z,7.83
2019-01-30T19:59:52.190Z,6.80
2019-01-30T20:04:09.264Z,6.83
2019-01-30T20:08:28.453Z,8.50
2019-01-30T20:12:47.265Z,9.00
2019-01-30T20:17:04.332Z,12.53
2019-01-30T20:21:24.216Z,12.07
2019-01-30T20:25:45.787Z,8.80
2019-01-30T20:29:58.887Z,11.53
2019-01-30T20:34:12.140Z,11.47
2019-01-30T20:38:25.781Z,11.13
2019-01-30T20:42:39.952Z,12.60
2019-01-30T20:46:53.679Z,14.00
2019-01-30T20:51:06.896Z,16.27
2019-01-30T20:55:20.194Z,13.63
2019-01-30T20:59:34.340Z,21.20
2019-01-30T21:03:47.476Z,18.20
2019-01-30T21:08:00.677Z,23.43
2019-01-30T21:12:13.838Z,18.73
2019-01-30T21:16:26.946Z,17.00
2019-01-30T21:20:41.409Z,13.97
2019-01-30T21:24:57.305Z,14.13
2019-01-30T21:29:10.602Z,17.10
2019-01-30T21:33:23.768Z,17.07
2019-01-30T21:37:36.262Z,18.27
2019-01-30T21:41:49.339Z,20.87
2019-01-30T21:46:02.114Z,15.03
2019-01-30T21:50:14.951Z,19.93
2019-01-30T21:54:27.313Z,18.30
2019-01-30T21:58:40.205Z,14.83
2019-01-30T22:02:52.736Z,21.93
2019-01-30T22:07:05.491Z,18.00
2019-01-30T22:11:18.218Z,21.37
2019-01-30T22:15:30.616Z,20.00
2019-01-30T22:19:43.514Z,18.90
2019-01-30T22:24:05.225Z,17.03
2019-01-30T22:28:10.485Z,15.60
2019-01-30T22:32:22.909Z,16.90
2019-01-30T22:36:35.147Z,18.57
2019-01-30T22:40:47.459Z,19.30
2019-01-30T22:45:00.417Z,13.93
2019-01-30T22:49:12.810Z,14.80
2019-01-30T22:53:25.797Z,19.57
2019-01-30T22:57:38.265Z,18.13
2019-01-30T23:01:56.277Z,16.67
2019-01-30T23:06:40.784Z,15.97
2019-01-30T23:11:29.795Z,14.60
2019-01-30T23:16:05.065Z,19.00
2019-01-30T23:20:30.215Z,15.77
2019-01-30T23:25:31.797Z,18.83
2019-01-30T23:30:29.065Z,21.87
2019-01-30T23:35:23.256Z,25.70
2019-01-30T23:40:06.839Z,19.87
2019-01-30T23:44:38.512Z,24.13
2019-01-30T23:49:31.537Z,27.73
2019-01-30T23:54:12.528Z,27.10
2019-01-30T23:59:16.447Z,25.33
